sensor_id;sensor_type;location;lat;lon;timestamp;temperature;humidity
32348;DHT22;18821;44.800;10.326;2022-09-13T00:01:42;20.80;99.90
32348;DHT22;18821;44.800;10.326;2022-09-13T00:04:08;20.70;99.90
32348;DHT22;18821;44.800;10.326;2022-09-13T00:06:34;20.80;99.90
32348;DHT22;18821;44.800;10.326;2022-09-13T00:09:00;20.70;99.90
32348;DHT22;18821;44.800;10.326;2022-09-13T00:11:28;20.70;99.90
32348;DHT22;18821;44.800;10.326;2022-09-13T00:13:55;20.70;99.90
32348;DHT22;18821;44.800;10.326;2022-09-13T00:16:24;20.70;99.90
32348;DHT22;18821;44.800;10.326;2022-09-13T00:18:51;20.70;99.90
32348;DHT22;18821;44.800;10.326;2022-09-13T00:21:19;20.70;99.90
32348;DHT22;18821;44.800;10.326;2022-09-13T00:23:47;20.70;99.90
32348;DHT22;18821;44.800;10.326;2022-09-13T00:26:19;20.70;99.90
32348;DHT22;18821;44.800;10.326;2022-09-13T00:28:49;20.70;99.90
32348;DHT22;18821;44.800;10.326;2022-09-13T00:31:16;20.70;99.90
32348;DHT22;18821;44.800;10.326;2022-09-13T00:33:42;20.70;99.90
32348;DHT22;18821;44.800;10.326;2022-09-13T00:36:09;20.60;99.90
32348;DHT22;18821;44.800;10.326;2022-09-13T00:38:39;20.60;99.90
32348;DHT22;18821;44.800;10.326;2022-09-13T00:41:08;20.60;99.90
32348;DHT22;18821;44.800;10.326;2022-09-13T00:43:56;20.60;99.90
32348;DHT22;18821;44.800;10.326;2022-09-13T00:46:27;20.60;99.90
32348;DHT22;18821;44.800;10.326;2022-09-13T00:49:07;20.60;99.90
32348;DHT22;18821;44.800;10.326;2022-09-13T00:51:35;20.50;99.90
32348;DHT22;18821;44.800;10.326;2022-09-13T00:54:02;20.50;99.90
32348;DHT22;18821;44.800;10.326;2022-09-13T00:56:42;20.50;99.90
32348;DHT22;18821;44.800;10.326;2022-09-13T00:59:14;20.50;99.90
32348;DHT22;18821;44.800;10.326;2022-09-13T01:01:47;20.50;99.90
32348;DHT22;18821;44.800;10.326;2022-09-13T01:04:14;20.50;99.90
32348;DHT22;18821;44.800;10.326;2022-09-13T01:06:42;20.50;99.90
32348;DHT22;18821;44.800;10.326;2022-09-13T01:09:09;20.50;99.90
32348;DHT22;18821;44.800;10.326;2022-09-13T01:14:08;20.40;99.90
32348;DHT22;18821;44.800;10.326;2022-09-13T01:16:35;20.40;99.90
32348;DHT22;18821;44.800;10.326;2022-09-13T01:19:01;20.40;99.90
32348;DHT22;18821;44.800;10.326;2022-09-13T01:30:21;20.30;99.90
32348;DHT22;18821;44.800;10.326;2022-09-13T01:33:35;20.40;99.90
32348;DHT22;18821;44.800;10.326;2022-09-13T01:36:30;20.40;99.90
32348;DHT22;18821;44.800;10.326;2022-09-13T01:39:05;20.40;99.90
32348;DHT22;18821;44.800;10.326;2022-09-13T01:50:41;20.50;99.90
32348;DHT22;18821;44.800;10.326;2022-09-13T01:53:06;20.40;99.90
32348;DHT22;18821;44.800;10.326;2022-09-13T01:55:42;20.30;99.90
32348;DHT22;18821;44.800;10.326;2022-09-13T02:03:54;20.10;99.90
32348;DHT22;18821;44.800;10.326;2022-09-13T02:06:47;20.10;99.90
32348;DHT22;18821;44.800;10.326;2022-09-13T02:09:18;20.10;99.90
32348;DHT22;18821;44.800;10.326;2022-09-13T02:11:49;20.10;99.90
32348;DHT22;18821;44.800;10.326;2022-09-13T02:14:20;20.10;99.90
32348;DHT22;18821;44.800;10.326;2022-09-13T02:17:06;20.00;99.90
32348;DHT22;18821;44.800;10.326;2022-09-13T02:19:57;20.10;99.90
32348;DHT22;18821;44.800;10.326;2022-09-13T02:22:31;20.00;99.90
32348;DHT22;18821;44.800;10.326;2022-09-13T02:25:03;20.10;99.90
32348;DHT22;18821;44.800;10.326;2022-09-13T02:27:33;20.00;99.90
32348;DHT22;18821;44.800;10.326;2022-09-13T02:30:08;20.00;99.90
32348;DHT22;18821;44.800;10.326;2022-09-13T02:32:42;20.00;99.90
32348;DHT22;18821;44.800;10.326;2022-09-13T02:37:42;20.00;99.90
32348;DHT22;18821;44.800;10.326;2022-09-13T02:40:14;20.00;99.90
32348;DHT22;18821;44.800;10.326;2022-09-13T02:42:45;19.90;99.90
32348;DHT22;18821;44.800;10.326;2022-09-13T02:45:14;19.90;99.90
32348;DHT22;18821;44.800;10.326;2022-09-13T02:53:41;19.80;99.90
32348;DHT22;18821;44.800;10.326;2022-09-13T02:59:14;19.80;99.90
32348;DHT22;18821;44.800;10.326;2022-09-13T03:01:44;19.70;99.90
32348;DHT22;18821;44.800;10.326;2022-09-13T03:04:12;19.70;99.90
32348;DHT22;18821;44.800;10.326;2022-09-13T03:06:39;19.80;99.90
32348;DHT22;18821;44.800;10.326;2022-09-13T03:09:05;19.70;99.90
32348;DHT22;18821;44.800;10.326;2022-09-13T03:11:57;19.80;99.90
32348;DHT22;18821;44.800;10.326;2022-09-13T03:31:49;19.50;99.90
32348;DHT22;18821;44.800;10.326;2022-09-13T03:37:35;19.50;99.90
32348;DHT22;18821;44.800;10.326;2022-09-13T03:43:26;19.50;99.90
32348;DHT22;18821;44.800;10.326;2022-09-13T03:46:05;19.50;99.90
32348;DHT22;18821;44.800;10.326;2022-09-13T03:48:35;19.50;99.90
32348;DHT22;18821;44.800;10.326;2022-09-13T03:51:04;19.50;99.90
32348;DHT22;18821;44.800;10.326;2022-09-13T03:53:33;19.50;99.90
32348;DHT22;18821;44.800;10.326;2022-09-13T03:56:00;19.50;99.90
32348;DHT22;18821;44.800;10.326;2022-09-13T03:58:26;19.50;99.90
32348;DHT22;18821;44.800;10.326;2022-09-13T04:00:53;19.50;99.90
32348;DHT22;18821;44.800;10.326;2022-09-13T04:03:19;19.50;99.90
32348;DHT22;18821;44.800;10.326;2022-09-13T04:05:45;19.40;99.90
32348;DHT22;18821;44.800;10.326;2022-09-13T04:08:11;19.40;99.90
32348;DHT22;18821;44.800;10.326;2022-09-13T04:10:37;19.40;99.90
32348;DHT22;18821;44.800;10.326;2022-09-13T04:13:04;19.30;99.90
32348;DHT22;18821;44.800;10.326;2022-09-13T04:15:30;19.30;99.90
32348;DHT22;18821;44.800;10.326;2022-09-13T04:17:56;19.30;99.90
32348;DHT22;18821;44.800;10.326;2022-09-13T04:20:22;19.30;99.90
32348;DHT22;18821;44.800;10.326;2022-09-13T04:22:52;19.30;99.90
32348;DHT22;18821;44.800;10.326;2022-09-13T04:25:20;19.30;99.90
32348;DHT22;18821;44.800;10.326;2022-09-13T04:27:47;19.30;99.90
32348;DHT22;18821;44.800;10.326;2022-09-13T04:30:14;19.30;99.90
32348;DHT22;18821;44.800;10.326;2022-09-13T04:32:43;19.20;99.90
32348;DHT22;18821;44.800;10.326;2022-09-13T04:35:10;19.20;99.90
32348;DHT22;18821;44.800;10.326;2022-09-13T04:37:36;19.20;99.90
32348;DHT22;18821;44.800;10.326;2022-09-13T04:40:05;19.20;99.90
32348;DHT22;18821;44.800;10.326;2022-09-13T04:42:32;19.20;99.90
32348;DHT22;18821;44.800;10.326;2022-09-13T04:44:58;19.30;99.90
32348;DHT22;18821;44.800;10.326;2022-09-13T04:47:24;19.20;99.90
32348;DHT22;18821;44.800;10.326;2022-09-13T04:49:50;19.20;99.90
32348;DHT22;18821;44.800;10.326;2022-09-13T04:52:16;19.10;99.90
32348;DHT22;18821;44.800;10.326;2022-09-13T04:54:42;19.10;99.90
32348;DHT22;18821;44.800;10.326;2022-09-13T04:57:08;19.10;99.90
32348;DHT22;18821;44.800;10.326;2022-09-13T04:59:34;19.20;99.90
32348;DHT22;18821;44.800;10.326;2022-09-13T05:02:00;19.10;99.90
32348;DHT22;18821;44.800;10.326;2022-09-13T05:04:26;19.10;99.90
32348;DHT22;18821;44.800;10.326;2022-09-13T05:06:52;19.10;99.90
32348;DHT22;18821;44.800;10.326;2022-09-13T05:09:17;19.10;99.90
32348;DHT22;18821;44.800;10.326;2022-09-13T05:11:43;19.20;99.90
32348;DHT22;18821;44.800;10.326;2022-09-13T05:14:10;19.20;99.90
32348;DHT22;18821;44.800;10.326;2022-09-13T05:16:36;19.20;99.90
32348;DHT22;18821;44.800;10.326;2022-09-13T05:19:02;19.30;99.90
32348;DHT22;18821;44.800;10.326;2022-09-13T05:21:29;19.30;99.90
32348;DHT22;18821;44.800;10.326;2022-09-13T05:23:56;19.30;99.90
32348;DHT22;18821;44.800;10.326;2022-09-13T05:26:25;19.40;99.90
32348;DHT22;18821;44.800;10.326;2022-09-13T05:28:51;19.50;99.90
32348;DHT22;18821;44.800;10.326;2022-09-13T05:31:21;19.50;99.90
32348;DHT22;18821;44.800;10.326;2022-09-13T05:33:52;19.50;99.90
32348;DHT22;18821;44.800;10.326;2022-09-13T05:36:19;19.50;99.90
32348;DHT22;18821;44.800;10.326;2022-09-13T05:38:46;19.60;99.90
32348;DHT22;18821;44.800;10.326;2022-09-13T05:41:12;19.60;99.90
32348;DHT22;18821;44.800;10.326;2022-09-13T05:43:37;19.70;99.90
32348;DHT22;18821;44.800;10.326;2022-09-13T05:46:06;19.70;99.90
32348;DHT22;18821;44.800;10.326;2022-09-13T05:48:34;19.80;99.90
32348;DHT22;18821;44.800;10.326;2022-09-13T05:51:13;19.90;99.90
32348;DHT22;18821;44.800;10.326;2022-09-13T05:53:42;19.90;99.90
32348;DHT22;18821;44.800;10.326;2022-09-13T05:56:11;20.00;99.90
32348;DHT22;18821;44.800;10.326;2022-09-13T05:58:39;20.20;99.90
32348;DHT22;18821;44.800;10.326;2022-09-13T06:01:05;20.40;99.90
32348;DHT22;18821;44.800;10.326;2022-09-13T06:03:31;20.80;99.90
32348;DHT22;18821;44.800;10.326;2022-09-13T06:05:58;21.20;99.90
32348;DHT22;18821;44.800;10.326;2022-09-13T06:08:27;21.90;99.90
32348;DHT22;18821;44.800;10.326;2022-09-13T06:10:58;22.40;99.90
32348;DHT22;18821;44.800;10.326;2022-09-13T06:13:25;23.00;99.90
32348;DHT22;18821;44.800;10.326;2022-09-13T06:15:52;23.30;99.90
32348;DHT22;18821;44.800;10.326;2022-09-13T06:18:19;23.60;99.90
32348;DHT22;18821;44.800;10.326;2022-09-13T06:20:45;23.70;99.90
32348;DHT22;18821;44.800;10.326;2022-09-13T06:23:12;23.70;99.90
32348;DHT22;18821;44.800;10.326;2022-09-13T06:25:39;23.80;99.90
32348;DHT22;18821;44.800;10.326;2022-09-13T06:28:06;23.60;99.90
32348;DHT22;18821;44.800;10.326;2022-09-13T06:30:32;23.40;99.90
32348;DHT22;18821;44.800;10.326;2022-09-13T06:32:58;23.10;99.90
32348;DHT22;18821;44.800;10.326;2022-09-13T06:35:25;22.80;99.90
32348;DHT22;18821;44.800;10.326;2022-09-13T06:37:54;22.60;99.90
32348;DHT22;18821;44.800;10.326;2022-09-13T06:40:21;22.50;99.90
32348;DHT22;18821;44.800;10.326;2022-09-13T06:42:48;22.30;99.90
32348;DHT22;18821;44.800;10.326;2022-09-13T06:45:14;22.20;99.90
32348;DHT22;18821;44.800;10.326;2022-09-13T06:47:39;22.20;99.90
32348;DHT22;18821;44.800;10.326;2022-09-13T06:50:06;22.20;99.90
32348;DHT22;18821;44.800;10.326;2022-09-13T06:52:33;22.20;99.90
32348;DHT22;18821;44.800;10.326;2022-09-13T06:54:58;22.20;99.90
32348;DHT22;18821;44.800;10.326;2022-09-13T06:57:24;22.10;99.90
32348;DHT22;18821;44.800;10.326;2022-09-13T06:59:50;22.20;99.90
32348;DHT22;18821;44.800;10.326;2022-09-13T07:02:16;22.10;99.90
32348;DHT22;18821;44.800;10.326;2022-09-13T07:04:43;22.10;99.90
32348;DHT22;18821;44.800;10.326;2022-09-13T07:07:09;22.20;99.90
32348;DHT22;18821;44.800;10.326;2022-09-13T07:09:35;22.30;99.90
32348;DHT22;18821;44.800;10.326;2022-09-13T07:12:01;22.40;99.90
32348;DHT22;18821;44.800;10.326;2022-09-13T07:14:28;22.40;99.90
32348;DHT22;18821;44.800;10.326;2022-09-13T07:16:54;22.60;99.90
32348;DHT22;18821;44.800;10.326;2022-09-13T07:19:22;22.60;99.90
32348;DHT22;18821;44.800;10.326;2022-09-13T07:21:49;22.80;99.90
32348;DHT22;18821;44.800;10.326;2022-09-13T07:24:16;22.90;99.90
32348;DHT22;18821;44.800;10.326;2022-09-13T07:26:42;23.00;99.90
32348;DHT22;18821;44.800;10.326;2022-09-13T07:29:11;23.10;99.90
32348;DHT22;18821;44.800;10.326;2022-09-13T07:31:44;23.10;99.90
32348;DHT22;18821;44.800;10.326;2022-09-13T07:34:16;23.20;99.90
32348;DHT22;18821;44.800;10.326;2022-09-13T07:36:44;23.10;99.90
32348;DHT22;18821;44.800;10.326;2022-09-13T07:39:12;23.10;99.90
32348;DHT22;18821;44.800;10.326;2022-09-13T07:41:39;23.10;99.90
32348;DHT22;18821;44.800;10.326;2022-09-13T07:44:05;23.00;99.90
32348;DHT22;18821;44.800;10.326;2022-09-13T07:46:34;23.00;99.90
32348;DHT22;18821;44.800;10.326;2022-09-13T07:49:10;22.90;99.90
32348;DHT22;18821;44.800;10.326;2022-09-13T07:51:38;22.70;99.90
32348;DHT22;18821;44.800;10.326;2022-09-13T07:54:08;22.90;99.90
32348;DHT22;18821;44.800;10.326;2022-09-13T07:56:37;23.00;99.90
32348;DHT22;18821;44.800;10.326;2022-09-13T07:59:05;23.30;99.90
32348;DHT22;18821;44.800;10.326;2022-09-13T08:01:37;23.40;99.90
32348;DHT22;18821;44.800;10.326;2022-09-13T08:04:08;23.60;99.90
32348;DHT22;18821;44.800;10.326;2022-09-13T08:06:36;23.60;99.90
32348;DHT22;18821;44.800;10.326;2022-09-13T08:09:03;23.70;99.90
32348;DHT22;18821;44.800;10.326;2022-09-13T08:11:34;23.60;99.90
32348;DHT22;18821;44.800;10.326;2022-09-13T08:14:01;23.60;99.90
32348;DHT22;18821;44.800;10.326;2022-09-13T08:16:28;23.60;99.90
32348;DHT22;18821;44.800;10.326;2022-09-13T08:18:57;23.30;99.90
32348;DHT22;18821;44.800;10.326;2022-09-13T08:21:25;23.40;99.90
32348;DHT22;18821;44.800;10.326;2022-09-13T08:23:55;23.50;99.90
32348;DHT22;18821;44.800;10.326;2022-09-13T08:26:21;23.60;99.90
32348;DHT22;18821;44.800;10.326;2022-09-13T08:28:47;23.70;99.90
32348;DHT22;18821;44.800;10.326;2022-09-13T08:31:15;23.60;99.90
32348;DHT22;18821;44.800;10.326;2022-09-13T08:33:46;23.60;99.90
32348;DHT22;18821;44.800;10.326;2022-09-13T08:36:14;23.90;99.90
32348;DHT22;18821;44.800;10.326;2022-09-13T08:38:47;24.10;99.90
32348;DHT22;18821;44.800;10.326;2022-09-13T08:44:03;24.60;99.90
32348;DHT22;18821;44.800;10.326;2022-09-13T08:46:46;24.60;99.90
32348;DHT22;18821;44.800;10.326;2022-09-13T08:49:19;24.50;99.90
32348;DHT22;18821;44.800;10.326;2022-09-13T08:51:53;24.50;99.90
32348;DHT22;18821;44.800;10.326;2022-09-13T08:54:21;24.60;99.90
32348;DHT22;18821;44.800;10.326;2022-09-13T09:05:19;25.00;99.90
32348;DHT22;18821;44.800;10.326;2022-09-13T09:07:57;24.80;99.90
32348;DHT22;18821;44.800;10.326;2022-09-13T09:11:02;24.60;99.90
32348;DHT22;18821;44.800;10.326;2022-09-13T09:13:31;24.70;99.90
32348;DHT22;18821;44.800;10.326;2022-09-13T09:16:15;24.70;99.90
32348;DHT22;18821;44.800;10.326;2022-09-13T09:18:47;25.10;99.90
32348;DHT22;18821;44.800;10.326;2022-09-13T09:21:17;25.10;99.90
32348;DHT22;18821;44.800;10.326;2022-09-13T09:23:53;24.90;99.90
32348;DHT22;18821;44.800;10.326;2022-09-13T09:26:22;24.90;99.90
32348;DHT22;18821;44.800;10.326;2022-09-13T09:29:11;25.00;99.90
32348;DHT22;18821;44.800;10.326;2022-09-13T09:36:44;25.00;99.90
32348;DHT22;18821;44.800;10.326;2022-09-13T09:39:14;25.30;99.90
32348;DHT22;18821;44.800;10.326;2022-09-13T09:41:42;25.10;99.90
32348;DHT22;18821;44.800;10.326;2022-09-13T09:47:02;25.20;99.90
32348;DHT22;18821;44.800;10.326;2022-09-13T09:52:16;25.60;99.90
32348;DHT22;18821;44.800;10.326;2022-09-13T09:54:44;25.60;99.90
32348;DHT22;18821;44.800;10.326;2022-09-13T09:57:12;25.70;99.90
32348;DHT22;18821;44.800;10.326;2022-09-13T09:59:38;25.80;99.90
32348;DHT22;18821;44.800;10.326;2022-09-13T10:02:30;26.00;99.90
32348;DHT22;18821;44.800;10.326;2022-09-13T10:05:00;25.80;99.90
32348;DHT22;18821;44.800;10.326;2022-09-13T10:07:30;25.80;99.90
32348;DHT22;18821;44.800;10.326;2022-09-13T10:10:00;26.00;99.90
32348;DHT22;18821;44.800;10.326;2022-09-13T10:12:36;26.20;99.90
32348;DHT22;18821;44.800;10.326;2022-09-13T10:15:28;26.30;99.90
32348;DHT22;18821;44.800;10.326;2022-09-13T10:18:15;26.00;99.90
32348;DHT22;18821;44.800;10.326;2022-09-13T10:20:53;25.90;99.90
32348;DHT22;18821;44.800;10.326;2022-09-13T10:23:25;26.10;99.90
32348;DHT22;18821;44.800;10.326;2022-09-13T10:31:14;26.60;99.90
32348;DHT22;18821;44.800;10.326;2022-09-13T10:33:50;26.70;99.90
32348;DHT22;18821;44.800;10.326;2022-09-13T10:36:20;26.60;99.90
32348;DHT22;18821;44.800;10.326;2022-09-13T10:39:14;26.70;99.90
32348;DHT22;18821;44.800;10.326;2022-09-13T10:42:05;26.80;99.90
32348;DHT22;18821;44.800;10.326;2022-09-13T10:44:50;26.80;99.90
32348;DHT22;18821;44.800;10.326;2022-09-13T10:49:54;27.30;99.90
32348;DHT22;18821;44.800;10.326;2022-09-13T10:54:58;27.30;99.90
32348;DHT22;18821;44.800;10.326;2022-09-13T10:57:38;27.10;99.90
32348;DHT22;18821;44.800;10.326;2022-09-13T11:00:05;27.30;99.90
32348;DHT22;18821;44.800;10.326;2022-09-13T11:02:45;27.30;99.90
32348;DHT22;18821;44.800;10.326;2022-09-13T11:19:38;27.50;99.90
32348;DHT22;18821;44.800;10.326;2022-09-13T11:30:20;28.00;99.90
32348;DHT22;18821;44.800;10.326;2022-09-13T11:33:16;28.10;99.90
32348;DHT22;18821;44.800;10.326;2022-09-13T11:35:52;28.30;99.90
32348;DHT22;18821;44.800;10.326;2022-09-13T11:55:02;28.70;99.90
32348;DHT22;18821;44.800;10.326;2022-09-13T11:57:39;28.70;99.90
32348;DHT22;18821;44.800;10.326;2022-09-13T12:00:22;29.10;99.90
32348;DHT22;18821;44.800;10.326;2022-09-13T12:02:58;29.20;99.90
32348;DHT22;18821;44.800;10.326;2022-09-13T12:05:30;29.40;99.90
32348;DHT22;18821;44.800;10.326;2022-09-13T12:11:04;29.60;99.90
32348;DHT22;18821;44.800;10.326;2022-09-13T12:16:09;28.90;99.90
32348;DHT22;18821;44.800;10.326;2022-09-13T12:18:40;28.70;99.90
32348;DHT22;18821;44.800;10.326;2022-09-13T12:21:14;28.60;99.90
32348;DHT22;18821;44.800;10.326;2022-09-13T12:26:54;28.80;99.90
32348;DHT22;18821;44.800;10.326;2022-09-13T12:32:03;29.50;99.90
32348;DHT22;18821;44.800;10.326;2022-09-13T12:34:57;29.00;99.90
32348;DHT22;18821;44.800;10.326;2022-09-13T12:40:26;29.00;99.90
32348;DHT22;18821;44.800;10.326;2022-09-13T12:46:03;29.60;99.90
32348;DHT22;18821;44.800;10.326;2022-09-13T12:48:52;29.80;99.90
32348;DHT22;18821;44.800;10.326;2022-09-13T13:02:40;29.60;99.90
32348;DHT22;18821;44.800;10.326;2022-09-13T13:10:58;29.60;99.90
32348;DHT22;18821;44.800;10.326;2022-09-13T13:16:05;29.80;99.90
32348;DHT22;18821;44.800;10.326;2022-09-13T13:18:46;29.90;99.90
32348;DHT22;18821;44.800;10.326;2022-09-13T13:34:36;30.50;99.90
32348;DHT22;18821;44.800;10.326;2022-09-13T13:39:47;30.00;99.90
32348;DHT22;18821;44.800;10.326;2022-09-13T13:42:28;30.20;99.90
32348;DHT22;18821;44.800;10.326;2022-09-13T13:45:04;30.50;99.90
32348;DHT22;18821;44.800;10.326;2022-09-13T13:52:50;30.40;99.90
32348;DHT22;18821;44.800;10.326;2022-09-13T13:55:39;30.10;99.90
32348;DHT22;18821;44.800;10.326;2022-09-13T14:00:50;30.00;99.90
32348;DHT22;18821;44.800;10.326;2022-09-13T14:06:16;30.20;99.90
32348;DHT22;18821;44.800;10.326;2022-09-13T14:19:38;29.10;99.90
32348;DHT22;18821;44.800;10.326;2022-09-13T14:22:15;29.10;99.90
32348;DHT22;18821;44.800;10.326;2022-09-13T14:24:49;29.20;99.90
32348;DHT22;18821;44.800;10.326;2022-09-13T14:27:21;29.20;99.90
32348;DHT22;18821;44.800;10.326;2022-09-13T14:32:42;29.80;99.90
32348;DHT22;18821;44.800;10.326;2022-09-13T14:37:54;30.10;99.90
32348;DHT22;18821;44.800;10.326;2022-09-13T14:40:24;30.10;99.90
32348;DHT22;18821;44.800;10.326;2022-09-13T14:42:54;30.10;99.90
32348;DHT22;18821;44.800;10.326;2022-09-13T14:45:31;30.00;99.90
32348;DHT22;18821;44.800;10.326;2022-09-13T14:48:15;30.00;99.90
32348;DHT22;18821;44.800;10.326;2022-09-13T14:50:55;29.70;99.90
32348;DHT22;18821;44.800;10.326;2022-09-13T14:53:25;29.60;99.90
32348;DHT22;18821;44.800;10.326;2022-09-13T14:55:55;29.70;99.90
32348;DHT22;18821;44.800;10.326;2022-09-13T15:01:07;29.50;99.90
32348;DHT22;18821;44.800;10.326;2022-09-13T15:03:33;29.40;99.90
32348;DHT22;18821;44.800;10.326;2022-09-13T15:06:01;29.40;99.90
32348;DHT22;18821;44.800;10.326;2022-09-13T15:08:40;29.30;99.90
32348;DHT22;18821;44.800;10.326;2022-09-13T15:11:25;29.30;99.90
32348;DHT22;18821;44.800;10.326;2022-09-13T15:14:20;29.30;99.90
32348;DHT22;18821;44.800;10.326;2022-09-13T15:16:50;29.40;99.90
32348;DHT22;18821;44.800;10.326;2022-09-13T15:21:49;29.40;99.90
32348;DHT22;18821;44.800;10.326;2022-09-13T15:24:27;29.30;99.90
32348;DHT22;18821;44.800;10.326;2022-09-13T15:27:02;29.30;99.90
32348;DHT22;18821;44.800;10.326;2022-09-13T15:29:28;29.20;99.90
32348;DHT22;18821;44.800;10.326;2022-09-13T15:32:03;29.20;99.90
32348;DHT22;18821;44.800;10.326;2022-09-13T15:34:31;29.20;99.90
32348;DHT22;18821;44.800;10.326;2022-09-13T15:37:01;29.00;99.90
32348;DHT22;18821;44.800;10.326;2022-09-13T15:39:27;28.90;99.90
32348;DHT22;18821;44.800;10.326;2022-09-13T15:41:58;28.90;99.90
32348;DHT22;18821;44.800;10.326;2022-09-13T15:44:26;28.90;99.90
32348;DHT22;18821;44.800;10.326;2022-09-13T15:47:08;28.70;99.90
32348;DHT22;18821;44.800;10.326;2022-09-13T15:49:37;28.70;99.90
32348;DHT22;18821;44.800;10.326;2022-09-13T15:52:04;28.70;99.90
32348;DHT22;18821;44.800;10.326;2022-09-13T15:54:36;28.60;99.90
32348;DHT22;18821;44.800;10.326;2022-09-13T15:57:28;28.60;99.90
32348;DHT22;18821;44.800;10.326;2022-09-13T15:59:54;28.60;99.90
32348;DHT22;18821;44.800;10.326;2022-09-13T16:02:26;28.50;99.90
32348;DHT22;18821;44.800;10.326;2022-09-13T16:04:53;28.50;99.90
32348;DHT22;18821;44.800;10.326;2022-09-13T16:07:20;28.50;99.90
32348;DHT22;18821;44.800;10.326;2022-09-13T16:09:47;28.50;99.90
32348;DHT22;18821;44.800;10.326;2022-09-13T16:12:13;28.40;99.90
32348;DHT22;18821;44.800;10.326;2022-09-13T16:14:40;28.40;99.90
32348;DHT22;18821;44.800;10.326;2022-09-13T16:17:25;28.40;99.90
32348;DHT22;18821;44.800;10.326;2022-09-13T16:19:51;28.30;99.90
32348;DHT22;18821;44.800;10.326;2022-09-13T16:22:17;28.20;99.90
32348;DHT22;18821;44.800;10.326;2022-09-13T16:24:43;28.20;99.90
32348;DHT22;18821;44.800;10.326;2022-09-13T16:27:14;28.10;99.90
32348;DHT22;18821;44.800;10.326;2022-09-13T16:29:42;28.10;99.90
32348;DHT22;18821;44.800;10.326;2022-09-13T16:32:10;28.10;99.90
32348;DHT22;18821;44.800;10.326;2022-09-13T16:34:36;28.10;99.90
32348;DHT22;18821;44.800;10.326;2022-09-13T16:37:02;28.00;99.90
32348;DHT22;18821;44.800;10.326;2022-09-13T16:39:29;28.00;99.90
32348;DHT22;18821;44.800;10.326;2022-09-13T16:41:55;27.90;99.90
32348;DHT22;18821;44.800;10.326;2022-09-13T16:44:21;27.90;99.90
32348;DHT22;18821;44.800;10.326;2022-09-13T16:46:47;27.80;99.90
32348;DHT22;18821;44.800;10.326;2022-09-13T16:49:13;27.80;99.90
32348;DHT22;18821;44.800;10.326;2022-09-13T16:51:39;27.80;99.90
32348;DHT22;18821;44.800;10.326;2022-09-13T16:54:05;27.70;99.90
32348;DHT22;18821;44.800;10.326;2022-09-13T16:56:31;27.70;99.90
32348;DHT22;18821;44.800;10.326;2022-09-13T16:58:59;27.70;99.90
32348;DHT22;18821;44.800;10.326;2022-09-13T17:01:27;27.60;99.90
32348;DHT22;18821;44.800;10.326;2022-09-13T17:03:55;27.60;99.90
32348;DHT22;18821;44.800;10.326;2022-09-13T17:06:22;27.60;99.90
32348;DHT22;18821;44.800;10.326;2022-09-13T17:08:54;27.50;99.90
32348;DHT22;18821;44.800;10.326;2022-09-13T17:11:23;27.50;99.90
32348;DHT22;18821;44.800;10.326;2022-09-13T17:13:50;27.40;99.90
32348;DHT22;18821;44.800;10.326;2022-09-13T17:16:42;27.40;99.90
32348;DHT22;18821;44.800;10.326;2022-09-13T17:19:12;27.40;99.90
32348;DHT22;18821;44.800;10.326;2022-09-13T17:21:39;27.40;99.90
32348;DHT22;18821;44.800;10.326;2022-09-13T17:24:05;27.30;99.90
32348;DHT22;18821;44.800;10.326;2022-09-13T17:26:31;27.30;99.90
32348;DHT22;18821;44.800;10.326;2022-09-13T17:28:57;27.20;99.90
32348;DHT22;18821;44.800;10.326;2022-09-13T17:31:23;27.20;99.90
32348;DHT22;18821;44.800;10.326;2022-09-13T17:33:50;27.10;99.90
32348;DHT22;18821;44.800;10.326;2022-09-13T17:36:18;27.00;99.90
32348;DHT22;18821;44.800;10.326;2022-09-13T17:38:45;26.90;99.90
32348;DHT22;18821;44.800;10.326;2022-09-13T17:41:14;26.90;99.90
32348;DHT22;18821;44.800;10.326;2022-09-13T17:43:41;26.80;99.90
32348;DHT22;18821;44.800;10.326;2022-09-13T17:46:13;26.70;99.90
32348;DHT22;18821;44.800;10.326;2022-09-13T17:48:40;26.70;99.90
32348;DHT22;18821;44.800;10.326;2022-09-13T17:51:11;26.70;99.90
32348;DHT22;18821;44.800;10.326;2022-09-13T17:53:39;26.60;99.90
32348;DHT22;18821;44.800;10.326;2022-09-13T17:56:07;26.50;99.90
32348;DHT22;18821;44.800;10.326;2022-09-13T17:58:34;26.50;99.90
32348;DHT22;18821;44.800;10.326;2022-09-13T18:01:05;26.40;99.90
32348;DHT22;18821;44.800;10.326;2022-09-13T18:03:32;26.30;99.90
32348;DHT22;18821;44.800;10.326;2022-09-13T18:06:00;26.30;99.90
32348;DHT22;18821;44.800;10.326;2022-09-13T18:08:28;26.30;99.90
32348;DHT22;18821;44.800;10.326;2022-09-13T18:11:00;26.30;99.90
32348;DHT22;18821;44.800;10.326;2022-09-13T18:13:26;26.30;99.90
32348;DHT22;18821;44.800;10.326;2022-09-13T18:16:06;26.20;99.90
32348;DHT22;18821;44.800;10.326;2022-09-13T18:18:34;26.10;99.90
32348;DHT22;18821;44.800;10.326;2022-09-13T18:21:01;26.10;99.90
32348;DHT22;18821;44.800;10.326;2022-09-13T18:23:27;26.00;99.90
32348;DHT22;18821;44.800;10.326;2022-09-13T18:26:04;26.00;99.90
32348;DHT22;18821;44.800;10.326;2022-09-13T18:28:31;26.00;99.90
32348;DHT22;18821;44.800;10.326;2022-09-13T18:30:59;25.90;99.90
32348;DHT22;18821;44.800;10.326;2022-09-13T18:33:26;25.90;99.90
32348;DHT22;18821;44.800;10.326;2022-09-13T18:36:05;25.80;99.90
32348;DHT22;18821;44.800;10.326;2022-09-13T18:38:51;25.80;99.90
32348;DHT22;18821;44.800;10.326;2022-09-13T18:41:23;25.70;99.90
32348;DHT22;18821;44.800;10.326;2022-09-13T18:43:51;25.70;99.90
32348;DHT22;18821;44.800;10.326;2022-09-13T18:46:19;25.70;99.90
32348;DHT22;18821;44.800;10.326;2022-09-13T18:48:47;25.70;99.90
32348;DHT22;18821;44.800;10.326;2022-09-13T18:51:17;25.60;99.90
32348;DHT22;18821;44.800;10.326;2022-09-13T18:53:44;25.60;99.90
32348;DHT22;18821;44.800;10.326;2022-09-13T18:56:13;25.60;99.90
32348;DHT22;18821;44.800;10.326;2022-09-13T18:58:40;25.50;99.90
32348;DHT22;18821;44.800;10.326;2022-09-13T19:03:34;25.40;99.90
32348;DHT22;18821;44.800;10.326;2022-09-13T19:06:21;25.30;99.90
32348;DHT22;18821;44.800;10.326;2022-09-13T19:08:49;25.20;99.90
32348;DHT22;18821;44.800;10.326;2022-09-13T19:11:16;25.20;99.90
32348;DHT22;18821;44.800;10.326;2022-09-13T19:13:43;25.10;99.90
32348;DHT22;18821;44.800;10.326;2022-09-13T19:16:13;25.10;99.90
32348;DHT22;18821;44.800;10.326;2022-09-13T19:18:40;25.10;99.90